createdAt,value
2022-08-22T00:01:13.051Z,4.32
2022-08-22T00:02:47.469Z,2.88
2022-08-22T00:02:55.205Z,4.30
2022-08-22T00:03:55.078Z,4.88
2022-08-22T00:06:31.451Z,4.13
2022-08-22T00:09:04.534Z,4.10
2022-08-22T00:11:35.328Z,4.00
2022-08-22T00:14:13.644Z,4.53
2022-08-22T00:16:43.933Z,3.85
2022-08-22T00:19:14.041Z,4.40
2022-08-22T00:21:59.790Z,3.97
2022-08-22T00:24:33.701Z,4.07
2022-08-22T00:27:12.828Z,4.07
2022-08-22T00:29:55.290Z,3.97
2022-08-22T00:32:32.818Z,3.80
2022-08-22T00:35:03.380Z,4.35
2022-08-22T00:37:39.385Z,3.72
2022-08-22T00:40:26.700Z,4.32
2022-08-22T00:43:02.840Z,4.22
2022-08-22T00:45:30.006Z,3.53
2022-08-22T00:48:15.913Z,3.83
2022-08-22T00:53:10.181Z,4.00
2022-08-22T00:55:37.304Z,3.78
2022-08-22T00:58:13.637Z,4.00
2022-08-22T01:00:45.460Z,4.07
2022-08-22T01:03:32.035Z,4.38
2022-08-22T01:06:31.764Z,3.75
2022-08-22T01:09:24.156Z,4.28
2022-08-22T01:11:57.281Z,3.67
2022-08-22T01:14:46.433Z,4.10
2022-08-22T01:17:25.648Z,4.07
2022-08-22T01:20:11.501Z,3.58
2022-08-22T01:22:44.760Z,3.80
2022-08-22T01:25:30.483Z,4.20
2022-08-22T01:30:34.677Z,3.53
2022-08-22T01:33:07.031Z,4.20
2022-08-22T01:35:42.749Z,4.45
2022-08-22T01:38:35.243Z,4.05
2022-08-22T01:41:06.231Z,4.50
2022-08-22T01:44:00.659Z,4.45
2022-08-22T01:46:54.688Z,3.80
2022-08-22T01:49:25.150Z,4.53
2022-08-22T01:51:56.900Z,4.30
2022-08-22T01:54:47.233Z,4.15
2022-08-22T01:57:14.731Z,4.38
2022-08-22T01:59:44.221Z,4.35
2022-08-22T02:02:23.791Z,4.40
2022-08-22T02:04:53.766Z,4.32
2022-08-22T02:07:20.917Z,3.30
2022-08-22T02:10:01.852Z,4.28
2022-08-22T02:12:34.944Z,3.95
2022-08-22T02:15:20.673Z,4.90
2022-08-22T02:18:01.236Z,3.95
2022-08-22T02:21:00.876Z,5.03
2022-08-22T02:23:28.005Z,4.75
2022-08-22T02:26:02.283Z,5.43
2022-08-22T02:28:29.431Z,5.70
2022-08-22T02:31:02.755Z,5.43
2022-08-22T02:33:35.837Z,6.03
2022-08-22T02:36:06.972Z,5.85
2022-08-22T02:38:37.380Z,6.03
2022-08-22T02:41:34.096Z,5.85
2022-08-22T02:44:14.095Z,6.85
2022-08-22T02:46:41.369Z,6.68
2022-08-22T02:49:27.619Z,6.88
2022-08-22T02:52:12.649Z,7.22
2022-08-22T02:54:47.014Z,7.40
2022-08-22T02:57:20.217Z,7.60
2022-08-22T02:59:59.396Z,7.32
2022-08-22T03:02:34.056Z,7.20
2022-08-22T03:05:21.549Z,6.60
2022-08-22T03:07:51.215Z,7.75
2022-08-22T03:10:24.097Z,7.25
2022-08-22T03:12:55.757Z,8.40
2022-08-22T03:15:28.179Z,7.97
2022-08-22T03:18:18.438Z,8.13
2022-08-22T03:21:12.385Z,8.65
2022-08-22T03:23:42.578Z,7.90
2022-08-22T03:26:28.501Z,7.45
2022-08-22T03:31:27.197Z,7.90
2022-08-22T03:34:13.513Z,7.65
2022-08-22T03:36:45.451Z,7.22
2022-08-22T03:39:17.597Z,7.50
2022-08-22T03:41:57.349Z,8.27
2022-08-22T03:44:36.328Z,8.15
2022-08-22T03:47:17.018Z,8.45
2022-08-22T03:49:59.478Z,9.95
2022-08-22T03:52:57.701Z,9.60
2022-08-22T03:55:33.923Z,10.00
2022-08-22T03:58:27.661Z,10.20
2022-08-22T04:01:28.485Z,10.15
2022-08-22T04:03:55.645Z,10.32
2022-08-22T04:06:45.330Z,10.07
2022-08-22T04:09:41.147Z,10.45
2022-08-22T04:12:08.724Z,9.90
2022-08-22T04:14:54.571Z,10.38
2022-08-22T04:20:08.274Z,11.57
2022-08-22T04:22:50.486Z,11.77
2022-08-22T04:25:23.257Z,11.40
2022-08-22T04:27:58.780Z,11.57
2022-08-22T04:30:33.889Z,11.27
2022-08-22T04:33:21.417Z,11.50
2022-08-22T04:35:57.700Z,11.82
2022-08-22T04:38:27.694Z,11.02
2022-08-22T04:41:02.589Z,11.75
2022-08-22T04:43:35.317Z,12.02
2022-08-22T04:46:20.963Z,12.50
2022-08-22T04:48:54.206Z,12.20
2022-08-22T04:51:25.497Z,11.32
2022-08-22T04:54:02.695Z,12.55
2022-08-22T04:56:32.960Z,11.65
2022-08-22T04:59:05.453Z,11.32
2022-08-22T05:01:51.227Z,12.23
2022-08-22T05:04:27.125Z,11.68
2022-08-22T05:06:58.330Z,11.75
2022-08-22T05:09:27.781Z,11.15
2022-08-22T05:11:58.123Z,12.02
2022-08-22T05:14:38.647Z,11.43
2022-08-22T05:17:08.367Z,11.57
2022-08-22T05:19:37.802Z,11.35
2022-08-22T05:22:10.969Z,10.73
2022-08-22T05:24:40.493Z,10.77
2022-08-22T05:27:12.494Z,10.40
2022-08-22T05:29:41.336Z,10.38
2022-08-22T05:32:12.981Z,11.00
2022-08-22T05:34:41.752Z,9.48
2022-08-22T05:37:10.244Z,9.57
2022-08-22T05:39:38.838Z,9.40
2022-08-22T05:42:06.856Z,8.85
2022-08-22T05:44:35.449Z,8.98
2022-08-22T05:47:05.612Z,9.23
2022-08-22T05:49:41.237Z,8.45
2022-08-22T05:52:11.156Z,8.18
2022-08-22T05:54:49.291Z,9.15
2022-08-22T05:57:24.260Z,7.95
2022-08-22T05:59:54.989Z,8.55
2022-08-22T06:02:24.515Z,7.82
2022-08-22T06:04:54.792Z,7.82
2022-08-22T06:07:31.766Z,8.30
2022-08-22T06:10:17.629Z,7.47
2022-08-22T06:15:21.022Z,7.30
2022-08-22T06:17:50.404Z,7.50
2022-08-22T06:20:22.321Z,6.30
2022-08-22T06:22:52.354Z,6.72
2022-08-22T06:25:23.556Z,7.13
2022-08-22T06:27:51.274Z,5.75
2022-08-22T06:30:19.789Z,6.70
2022-08-22T06:33:00.017Z,6.40
2022-08-22T06:35:59.682Z,6.07
2022-08-22T06:38:34.901Z,6.00
2022-08-22T06:43:34.158Z,5.18
2022-08-22T06:46:01.649Z,5.28
2022-08-22T06:48:28.944Z,4.97
2022-08-22T06:50:58.617Z,4.93
2022-08-22T06:53:28.908Z,4.50
2022-08-22T06:55:57.271Z,4.47
2022-08-22T06:58:34.087Z,4.38
2022-08-22T07:01:12.303Z,4.10
2022-08-22T07:03:47.018Z,4.90
2022-08-22T07:06:15.758Z,4.28
2022-08-22T07:08:43.009Z,4.57
2022-08-22T07:11:18.452Z,4.00
2022-08-22T07:16:13.059Z,4.20
2022-08-22T07:18:49.041Z,3.28
2022-08-22T07:21:27.740Z,4.07
2022-08-22T07:23:55.717Z,4.28
2022-08-22T07:26:29.173Z,4.25
2022-08-22T07:28:59.121Z,3.17
2022-08-22T07:31:26.257Z,4.07
2022-08-22T07:34:00.954Z,5.00
2022-08-22T07:36:32.437Z,3.50
2022-08-22T07:39:14.897Z,4.78
2022-08-22T07:41:48.005Z,3.90
2022-08-22T07:44:19.497Z,3.42
2022-08-22T07:46:55.969Z,3.42
2022-08-22T07:49:26.196Z,3.15
2022-08-22T07:51:58.888Z,3.75
2022-08-22T07:54:35.293Z,4.68
2022-08-22T07:57:05.249Z,3.38
2022-08-22T07:59:34.151Z,3.20
2022-08-22T08:02:02.219Z,3.67
2022-08-22T08:04:39.490Z,3.42
2022-08-22T08:07:09.774Z,3.95
2022-08-22T08:09:42.014Z,3.47
2022-08-22T08:12:11.105Z,3.60
2022-08-22T08:14:40.805Z,3.50
2022-08-22T08:17:11.113Z,3.70
2022-08-22T08:19:41.465Z,3.92
2022-08-22T08:22:10.028Z,3.78
2022-08-22T08:24:40.560Z,3.20
2022-08-22T08:27:36.737Z,3.88
2022-08-22T08:30:15.273Z,3.75
2022-08-22T08:32:43.898Z,3.47
2022-08-22T08:35:28.244Z,3.05
2022-08-22T08:38:03.701Z,3.58
2022-08-22T08:40:33.688Z,3.22
2022-08-22T08:43:35.070Z,3.33
2022-08-22T08:46:07.016Z,4.10
2022-08-22T08:48:53.169Z,3.10
2022-08-22T08:51:39.104Z,3.53
2022-08-22T08:54:43.528Z,4.30
2022-08-22T08:57:10.677Z,4.57
2022-08-22T09:00:00.989Z,4.15
2022-08-22T09:02:50.469Z,3.92
2022-08-22T09:05:45.041Z,3.55
2022-08-22T09:08:33.304Z,4.47
2022-08-22T09:11:28.270Z,4.13
2022-08-22T09:14:15.125Z,4.10
2022-08-22T09:17:00.841Z,3.63
2022-08-22T09:21:58.121Z,3.55
2022-08-22T09:24:25.294Z,3.95
2022-08-22T09:26:58.182Z,3.67
2022-08-22T09:29:36.099Z,3.67
2022-08-22T09:32:41.065Z,3.65
2022-08-22T09:35:12.205Z,3.60
2022-08-22T09:37:48.411Z,3.38
2022-08-22T09:40:18.848Z,3.25
2022-08-22T09:42:46.868Z,2.83
2022-08-22T09:45:34.413Z,3.00
2022-08-22T09:48:21.475Z,2.95
2022-08-22T09:51:01.628Z,3.00
2022-08-22T09:53:53.058Z,2.97
2022-08-22T09:56:20.400Z,2.47
2022-08-22T09:59:00.705Z,2.90
2022-08-22T10:01:42.271Z,2.75
2022-08-22T10:04:19.595Z,2.65
2022-08-22T10:06:46.978Z,3.05
2022-08-22T10:09:26.433Z,2.30
2022-08-22T10:12:12.452Z,2.40
2022-08-22T10:14:40.753Z,2.17
2022-08-22T10:17:21.556Z,1.95
2022-08-22T10:19:54.778Z,2.03
2022-08-22T10:22:40.493Z,2.05
2022-08-22T10:25:28.479Z,2.47
2022-08-22T10:28:01.626Z,2.60
2022-08-22T10:30:28.820Z,2.40
2022-08-22T10:33:14.665Z,2.30
2022-08-22T10:35:44.849Z,1.80
2022-08-22T10:38:25.194Z,3.28
2022-08-22T10:40:55.659Z,2.40
2022-08-22T10:43:30.245Z,2.40
2022-08-22T10:46:04.615Z,2.28
2022-08-22T10:48:36.347Z,2.47
2022-08-22T10:51:03.554Z,2.40
2022-08-22T10:53:54.854Z,2.53
2022-08-22T10:56:29.463Z,2.30
2022-08-22T10:59:13.079Z,2.22
2022-08-22T11:01:45.527Z,2.17
2022-08-22T11:04:18.652Z,2.30
2022-08-22T11:06:59.737Z,2.05
2022-08-22T11:09:39.841Z,2.30
2022-08-22T11:12:34.492Z,2.33
2022-08-22T11:15:34.395Z,2.50
2022-08-22T11:18:22.453Z,2.10
2022-08-22T11:20:50.015Z,2.17
2022-08-22T11:23:23.380Z,2.28
2022-08-22T11:25:52.410Z,2.50
2022-08-22T11:28:50.923Z,2.08
2022-08-22T11:31:24.489Z,1.92
2022-08-22T11:34:10.349Z,1.70
2022-08-22T11:36:37.584Z,2.42
2022-08-22T11:39:18.724Z,1.90
2022-08-22T11:41:59.263Z,2.20
2022-08-22T11:44:50.776Z,2.08
2022-08-22T11:47:20.486Z,2.35
2022-08-22T11:50:14.268Z,1.98
2022-08-22T11:52:57.873Z,2.40
2022-08-22T11:55:50.125Z,2.22
2022-08-22T11:58:28.837Z,2.30
2022-08-22T12:01:00.489Z,2.30
2022-08-22T12:03:35.535Z,2.50
2022-08-22T12:06:08.808Z,2.58
2022-08-22T12:08:36.542Z,3.20
2022-08-22T12:11:22.401Z,3.38
2022-08-22T12:16:16.845Z,2.90
2022-08-22T12:19:04.869Z,2.78
2022-08-22T12:21:36.687Z,2.20
2022-08-22T12:24:06.119Z,2.28
2022-08-22T12:26:52.961Z,2.67
2022-08-22T12:29:45.269Z,2.55
2022-08-22T12:32:27.559Z,2.45
2022-08-22T12:34:57.867Z,2.40
2022-08-22T12:37:52.098Z,2.33
2022-08-22T12:40:26.420Z,2.40
2022-08-22T12:43:03.602Z,3.10
2022-08-22T12:45:36.674Z,2.42
2022-08-22T12:48:07.828Z,2.60
2022-08-22T12:50:52.741Z,2.53
2022-08-22T12:53:40.182Z,2.20
2022-08-22T12:56:10.248Z,2.60
2022-08-22T12:58:55.853Z,2.28
2022-08-22T13:01:33.679Z,2.47
2022-08-22T13:04:03.452Z,2.03
2022-08-22T13:06:36.843Z,2.25
2022-08-22T13:09:13.912Z,2.50
2022-08-22T13:11:42.473Z,2.00
2022-08-22T13:14:15.620Z,2.20
2022-08-22T13:16:51.612Z,2.47
2022-08-22T13:19:22.262Z,2.25
2022-08-22T13:21:51.466Z,2.20
2022-08-22T13:24:38.388Z,2.33
2022-08-22T13:27:09.426Z,2.22
2022-08-22T13:29:49.316Z,2.40
2022-08-22T13:32:44.501Z,2.55
2022-08-22T13:35:19.017Z,2.55
2022-08-22T13:37:53.703Z,3.00
2022-08-22T13:40:26.696Z,2.50
2022-08-22T13:42:58.329Z,2.30
2022-08-22T13:45:27.833Z,2.92
2022-08-22T13:47:57.433Z,3.08
2022-08-22T13:50:26.589Z,2.47
2022-08-22T13:53:04.560Z,2.90
2022-08-22T13:55:34.193Z,2.50
2022-08-22T13:58:01.364Z,3.08
2022-08-22T14:00:29.565Z,2.90
2022-08-22T14:02:59.614Z,2.75
2022-08-22T14:05:44.947Z,2.20
2022-08-22T14:08:13.025Z,2.55
2022-08-22T14:10:44.076Z,2.17
2022-08-22T14:13:12.811Z,2.30
2022-08-22T14:15:45.764Z,2.28
2022-08-22T14:18:13.312Z,3.03
2022-08-22T14:20:42.105Z,2.78
2022-08-22T14:23:24.152Z,2.60
2022-08-22T14:25:54.621Z,2.13
2022-08-22T14:28:27.877Z,2.10
2022-08-22T14:31:13.314Z,2.80
2022-08-22T14:36:17.341Z,2.75
2022-08-22T14:38:47.666Z,2.75
2022-08-22T14:41:15.877Z,2.53
2022-08-22T14:43:50.331Z,2.80
2022-08-22T14:46:26.446Z,2.40
2022-08-22T14:48:56.852Z,2.50
2022-08-22T14:51:25.816Z,2.50
2022-08-22T14:53:53.314Z,3.00
2022-08-22T14:56:25.500Z,2.53
2022-08-22T14:58:57.428Z,2.38
2022-08-22T15:01:26.678Z,2.25
2022-08-22T15:04:08.114Z,2.30
2022-08-22T15:06:38.350Z,2.47
2022-08-22T15:09:31.648Z,2.47
2022-08-22T15:11:59.593Z,2.35
2022-08-22T15:14:38.158Z,2.58
2022-08-22T15:17:07.340Z,2.72
2022-08-22T15:19:36.768Z,2.47
2022-08-22T15:22:11.504Z,2.92
2022-08-22T15:24:46.598Z,2.47
2022-08-22T15:27:17.509Z,2.28
2022-08-22T15:29:49.521Z,2.75
2022-08-22T15:32:20.958Z,2.58
2022-08-22T15:34:52.452Z,1.98
2022-08-22T15:37:19.719Z,2.58
2022-08-22T15:40:03.001Z,2.88
2022-08-22T15:42:37.116Z,2.72
2022-08-22T15:45:04.945Z,2.58
2022-08-22T15:47:37.397Z,2.67
2022-08-22T15:50:10.845Z,2.50
2022-08-22T15:53:05.134Z,2.25
2022-08-22T15:55:34.462Z,2.75
2022-08-22T15:58:07.063Z,2.40
2022-08-22T16:00:36.217Z,2.95
2022-08-22T16:03:30.945Z,2.30
2022-08-22T16:06:05.061Z,2.78
2022-08-22T16:08:34.730Z,2.08
2022-08-22T16:11:04.981Z,2.47
2022-08-22T16:13:38.136Z,2.67
2022-08-22T16:16:08.577Z,2.30
2022-08-22T16:18:44.800Z,2.75
2022-08-22T16:21:16.530Z,1.90
2022-08-22T16:23:49.848Z,2.72
2022-08-22T16:26:19.337Z,2.00
2022-08-22T16:29:04.861Z,2.47
2022-08-22T16:34:20.138Z,2.30
2022-08-22T16:36:47.298Z,2.45
2022-08-22T16:39:14.495Z,2.20
2022-08-22T16:41:44.257Z,2.72
2022-08-22T16:44:29.961Z,2.35
2022-08-22T16:47:15.873Z,2.30
2022-08-22T16:49:51.972Z,2.67
2022-08-22T16:52:22.302Z,2.25
2022-08-22T16:54:53.870Z,3.10
2022-08-22T16:57:26.504Z,2.80
2022-08-22T17:00:13.026Z,2.38
2022-08-22T17:03:03.218Z,2.63
2022-08-22T17:05:33.186Z,2.70
2022-08-22T17:08:13.789Z,2.75
2022-08-22T17:10:48.088Z,2.45
2022-08-22T17:13:33.949Z,2.30
2022-08-22T17:16:19.782Z,2.10
2022-08-22T17:18:54.149Z,2.05
2022-08-22T17:21:26.293Z,2.40
2022-08-22T17:24:02.289Z,2.20
2022-08-22T17:26:40.669Z,2.88
2022-08-22T17:29:13.994Z,2.78
2022-08-22T17:31:41.261Z,2.80
2022-08-22T17:34:08.436Z,2.80
2022-08-22T17:36:54.256Z,2.78
2022-08-22T17:41:57.984Z,3.38
2022-08-22T17:44:30.545Z,2.90
2022-08-22T17:47:03.029Z,3.95
2022-08-22T17:49:36.091Z,3.72
2022-08-22T17:52:12.622Z,3.03
2022-08-22T17:54:40.533Z,2.92
2022-08-22T17:57:26.112Z,2.90
2022-08-22T17:59:57.108Z,3.35
2022-08-22T18:02:28.025Z,2.92
2022-08-22T18:05:04.250Z,3.30
2022-08-22T18:07:39.873Z,2.92
2022-08-22T18:10:27.329Z,2.55
2022-08-22T18:13:06.236Z,2.75
2022-08-22T18:15:34.314Z,2.60
2022-08-22T18:18:20.125Z,3.83
2022-08-22T18:23:35.690Z,3.33
2022-08-22T18:26:07.818Z,2.58
2022-08-22T18:28:37.269Z,3.25
2022-08-22T18:31:07.740Z,2.97
2022-08-22T18:33:44.735Z,2.83
2022-08-22T18:36:23.153Z,3.65
2022-08-22T18:38:57.748Z,3.55
2022-08-22T18:41:29.189Z,3.78
2022-08-22T18:43:59.338Z,3.50
2022-08-22T18:46:46.132Z,3.50
2022-08-22T18:49:22.477Z,3.08
2022-08-22T18:52:13.698Z,2.90
2022-08-22T18:54:55.701Z,2.53
2022-08-22T18:57:31.731Z,3.60
2022-08-22T19:00:10.075Z,3.33
2022-08-22T19:02:37.239Z,2.97
2022-08-22T19:05:10.210Z,3.08
2022-08-22T19:07:37.349Z,3.13
2022-08-22T19:10:13.690Z,3.10
2022-08-22T19:12:53.457Z,3.40
2022-08-22T19:15:25.241Z,3.42
2022-08-22T19:17:55.380Z,2.47
2022-08-22T19:20:49.827Z,3.30
2022-08-22T19:23:40.725Z,3.50
2022-08-22T19:26:26.227Z,3.65
2022-08-22T19:28:55.520Z,3.65
2022-08-22T19:31:23.310Z,3.92
2022-08-22T19:34:10.525Z,3.40
2022-08-22T19:36:37.810Z,3.83
2022-08-22T19:39:04.986Z,3.28
2022-08-22T19:41:54.003Z,3.92
2022-08-22T19:44:21.160Z,3.47
2022-08-22T19:47:08.738Z,4.03
2022-08-22T19:49:37.908Z,4.15
2022-08-22T19:52:21.215Z,3.72
2022-08-22T19:54:48.449Z,3.85
2022-08-22T19:57:18.792Z,3.92
2022-08-22T19:59:51.881Z,3.90
2022-08-22T20:02:21.861Z,3.35
2022-08-22T20:04:55.912Z,3.60
2022-08-22T20:07:45.888Z,3.97
2022-08-22T20:10:15.837Z,3.90
2022-08-22T20:13:07.710Z,3.63
2022-08-22T20:15:55.027Z,3.75
2022-08-22T20:19:06.518Z,3.95
2022-08-22T20:21:53.920Z,4.00
2022-08-22T20:24:40.200Z,4.65
2022-08-22T20:27:15.192Z,4.05
2022-08-22T20:29:45.099Z,3.28
2022-08-22T20:32:15.455Z,3.65
2022-08-22T20:34:43.370Z,4.18
2022-08-22T20:37:29.577Z,3.45
2022-08-22T20:40:38.036Z,3.60
2022-08-22T20:43:10.734Z,3.75
2022-08-22T20:45:42.479Z,3.95
2022-08-22T20:48:11.023Z,4.22
2022-08-22T20:50:38.219Z,4.80
2022-08-22T20:53:20.012Z,3.70
2022-08-22T20:55:56.316Z,4.10
2022-08-22T20:58:25.477Z,3.97
2022-08-22T21:00:54.913Z,3.75
2022-08-22T21:03:36.369Z,3.55
2022-08-22T21:06:29.925Z,3.72
2022-08-22T21:09:36.802Z,4.95
2022-08-22T21:12:04.713Z,3.97
2022-08-22T21:14:33.254Z,4.03
2022-08-22T21:17:16.784Z,4.50
2022-08-22T21:19:43.946Z,4.32
2022-08-22T21:22:15.008Z,4.32
2022-08-22T21:24:42.434Z,4.43
2022-08-22T21:27:14.406Z,4.35
2022-08-22T21:29:46.611Z,4.82
2022-08-22T21:32:34.045Z,4.07
2022-08-22T21:35:02.174Z,4.38
2022-08-22T21:37:40.980Z,4.53
2022-08-22T21:40:15.262Z,4.80
2022-08-22T21:42:43.983Z,4.75
2022-08-22T21:45:13.894Z,4.57
2022-08-22T21:47:42.609Z,4.40
2022-08-22T21:50:18.884Z,4.55
2022-08-22T21:53:02.953Z,4.18
2022-08-22T21:55:36.484Z,4.38
2022-08-22T21:58:12.611Z,4.45
2022-08-22T22:00:54.853Z,5.45
2022-08-22T22:03:28.823Z,4.82
2022-08-22T22:05:57.719Z,5.22
2022-08-22T22:08:25.440Z,5.57
2022-08-22T22:11:00.943Z,5.00
2022-08-22T22:13:28.976Z,5.13
2022-08-22T22:15:56.340Z,5.28
2022-08-22T22:18:24.932Z,5.28
2022-08-22T22:20:53.390Z,5.68
2022-08-22T22:23:22.131Z,5.43
2022-08-22T22:25:49.850Z,6.63
2022-08-22T22:28:21.841Z,6.32
2022-08-22T22:30:56.332Z,5.38
2022-08-22T22:33:25.114Z,5.93
2022-08-22T22:35:53.102Z,6.05
2022-08-22T22:38:24.050Z,5.50
2022-08-22T22:40:52.098Z,5.93
2022-08-22T22:43:19.404Z,5.85
2022-08-22T22:45:46.564Z,5.68
2022-08-22T22:48:23.817Z,6.40
2022-08-22T22:50:51.997Z,5.95
2022-08-22T22:53:20.037Z,6.15
2022-08-22T22:55:59.968Z,5.88
2022-08-22T22:58:28.094Z,7.20
2022-08-22T23:00:55.918Z,6.95
2022-08-22T23:03:23.396Z,6.10
2022-08-22T23:05:50.596Z,6.18
2022-08-22T23:08:18.065Z,6.72
2022-08-22T23:10:45.389Z,6.40
2022-08-22T23:13:12.556Z,6.57
2022-08-22T23:15:39.725Z,6.88
2022-08-22T23:18:06.917Z,7.00
2022-08-22T23:20:34.124Z,7.38
2022-08-22T23:23:01.353Z,8.25
2022-08-22T23:25:28.537Z,8.13
2022-08-22T23:27:55.868Z,8.27
2022-08-22T23:30:23.154Z,7.63
2022-08-22T23:32:50.463Z,9.00
2022-08-22T23:35:17.712Z,8.88
2022-08-22T23:37:44.933Z,8.82
2022-08-22T23:40:12.878Z,7.78
2022-08-22T23:42:40.177Z,7.82
2022-08-22T23:45:07.662Z,8.25
2022-08-22T23:47:34.845Z,8.77
2022-08-22T23:50:05.991Z,8.32
2022-08-22T23:52:33.561Z,7.97
2022-08-22T23:55:00.737Z,8.88
2022-08-22T23:57:29.351Z,7.15
2022-08-22T23:59:58.347Z,9.20
